Time;durP1;ratioP1;P1;durP2;ratioP2;P2;SDS_P1;SDS_P2;PMS_P1;PMS_P2;Temp;Humidity;BMP_temperature;BMP_pressure;BME280_temperature;BME280_humidity;BME280_pressure;Samples;Min_cycle;Max_cycle;Signal;HPM_P1;HPM_P2
2023/09/17 00:01:55;;;;;;;12.02;8.40;;;;;;;20.35;61.39;95095.78;4199888;28;20087;-75
2023/09/17 00:03:58;;;;;;;8.90;7.90;;;;;;;20.38;61.32;95091.88;4185820;28;20080;-73
2023/09/17 00:06:00;;;;;;;9.63;8.40;;;;;;;20.38;61.26;95097.19;4197583;28;20118;-75
2023/09/17 00:08:03;;;;;;;10.82;6.97;;;;;;;20.35;60.34;95086.97;4178040;28;20061;-75
2023/09/17 00:10:05;;;;;;;8.65;7.32;;;;;;;20.31;60.46;95083.13;4192133;28;20128;-74
2023/09/17 00:12:07;;;;;;;8.00;7.00;;;;;;;20.29;60.23;95080.66;4194753;28;20115;-75
2023/09/17 00:14:09;;;;;;;8.10;6.43;;;;;;;20.30;59.68;95087.59;4180995;28;20055;-74
2023/09/17 00:16:12;;;;;;;8.05;6.47;;;;;;;20.20;59.68;95087.25;4194647;28;20122;-72
2023/09/17 00:18:15;;;;;;;8.35;6.30;;;;;;;20.20;59.75;95079.25;4178425;28;20053;-73
2023/09/17 00:20:17;;;;;;;8.77;5.70;;;;;;;20.12;59.84;95076.81;4197571;28;20121;-75
2023/09/17 00:22:19;;;;;;;7.25;5.80;;;;;;;20.13;59.58;95075.78;4170806;28;20041;-75
2023/09/17 00:24:21;;;;;;;7.20;5.88;;;;;;;20.14;59.48;95061.47;4176208;28;20057;-74
2023/09/17 00:26:22;;;;;;;8.38;5.28;;;;;;;20.20;59.12;95068.63;4196440;28;20053;-75
2023/09/17 00:28:24;;;;;;;7.05;6.32;;;;;;;20.21;59.19;95072.91;4197559;28;20114;-72
2023/09/17 00:30:27;;;;;;;7.78;6.97;;;;;;;20.11;59.03;95065.38;4196534;28;20063;-76
2023/09/17 00:32:29;;;;;;;10.05;7.10;;;;;;;20.08;59.47;95063.13;4185388;28;20049;-74
2023/09/17 00:34:31;;;;;;;12.32;8.07;;;;;;;20.11;59.44;95067.19;4193024;28;20151;-76
2023/09/17 00:36:33;;;;;;;9.63;8.38;;;;;;;19.98;59.52;95063.56;4196264;28;20052;-76
2023/09/17 00:38:34;;;;;;;13.82;9.98;;;;;;;19.99;59.72;95061.72;4165410;28;20061;-75
2023/09/17 00:40:38;;;;;;;10.77;9.68;;;;;;;20.00;59.94;95061.53;4175027;28;20100;-77
2023/09/17 00:42:40;;;;;;;11.20;10.02;;;;;;;20.01;60.08;95067.66;4192049;28;20041;-74
2023/09/17 00:44:42;;;;;;;13.55;11.48;;;;;;;20.02;60.26;95064.75;4192747;28;20052;-76
2023/09/17 00:46:44;;;;;;;13.52;11.45;;;;;;;20.01;60.41;95067.66;4193565;28;20049;-75
2023/09/17 00:48:46;;;;;;;13.35;11.98;;;;;;;19.97;60.68;95066.44;4184421;28;20512;-75
2023/09/17 00:50:48;;;;;;;15.68;11.88;;;;;;;19.93;61.18;95066.00;4190440;28;20059;-73
2023/09/17 00:52:50;;;;;;;14.63;12.88;;;;;;;19.93;61.33;95065.22;4195438;28;20098;-76
2023/09/17 00:54:51;;;;;;;14.68;13.35;;;;;;;19.91;61.58;95065.41;4177252;28;20287;-76
2023/09/17 00:56:54;;;;;;;15.05;13.50;;;;;;;19.94;61.64;95067.66;4191971;28;20052;-74
2023/09/17 00:58:56;;;;;;;16.00;14.00;;;;;;;19.96;61.55;95060.31;4188151;28;20049;-75
2023/09/17 01:01:00;;;;;;;16.02;14.52;;;;;;;19.98;61.74;95074.22;4190935;28;20079;-76
2023/09/17 01:03:03;;;;;;;16.45;14.82;;;;;;;19.99;61.84;95064.38;4191475;28;20072;-75
2023/09/17 01:05:05;;;;;;;17.10;15.10;;;;;;;20.04;61.68;95068.03;4190286;28;20052;-76
2023/09/17 01:07:09;;;;;;;17.00;15.27;;;;;;;20.00;62.39;95068.66;4188275;28;20056;-75
2023/09/17 01:09:11;;;;;;;18.38;15.35;;;;;;;19.99;62.03;95065.19;4177004;28;20052;-75
2023/09/17 01:11:13;;;;;;;17.67;15.98;;;;;;;20.00;62.00;95072.16;4194147;28;20068;-75
2023/09/17 01:13:14;;;;;;;18.05;16.15;;;;;;;20.01;61.86;95065.00;4175179;28;20424;-75
2023/09/17 01:15:16;;;;;;;17.00;15.20;;;;;;;20.02;62.18;95067.41;4192671;28;20146;-74
2023/09/17 01:17:18;;;;;;;18.73;15.68;;;;;;;20.01;62.01;95068.47;4192461;28;20408;-75
2023/09/17 01:19:28;;;;;;;16.65;15.02;;;;;;;19.93;62.05;95066.00;4186116;28;20076;-75
2023/09/17 01:21:36;;;;;;;17.02;15.25;;;;;;;19.91;62.23;95068.06;4176138;28;20060;-74
2023/09/17 01:23:51;;;;;;;18.80;17.00;;;;;;;19.96;62.09;95065.63;4189585;28;20052;-74
2023/09/17 01:25:58;;;;;;;18.38;15.70;;;;;;;19.98;62.22;95063.56;4182896;28;20053;-73
2023/09/17 01:28:02;;;;;;;18.02;16.17;;;;;;;20.00;62.19;95066.00;4167712;28;20053;-75
2023/09/17 01:30:05;;;;;;;19.05;16.05;;;;;;;20.04;62.06;95057.38;4178435;28;20132;-74
2023/09/17 01:32:08;;;;;;;17.73;15.93;;;;;;;20.09;61.93;95059.44;4162648;28;20063;-75
2023/09/17 01:34:10;;;;;;;18.83;16.90;;;;;;;20.12;61.88;95061.69;4192308;28;20145;-75
2023/09/17 01:36:20;;;;;;;18.92;16.90;;;;;;;20.18;61.78;95068.00;4184546;28;20072;-74
2023/09/17 01:38:23;;;;;;;18.42;16.58;;;;;;;20.15;61.82;95069.22;4186661;28;20044;-75
2023/09/17 01:40:27;;;;;;;19.48;17.40;;;;;;;20.19;61.82;95061.66;4173605;28;20056;-76
2023/09/17 01:42:30;;;;;;;23.30;16.88;;;;;;;20.17;62.08;95063.72;4192781;28;20044;-75
2023/09/17 01:44:32;;;;;;;19.48;17.48;;;;;;;20.05;62.08;95067.03;4186657;28;20084;-75
2023/09/17 01:46:35;;;;;;;19.85;17.83;;;;;;;20.00;62.71;95068.66;4175215;28;20048;-76
2023/09/17 01:48:42;;;;;;;21.35;17.38;;;;;;;19.96;62.71;95065.63;4193291;28;20412;-76
2023/09/17 01:50:45;;;;;;;19.08;16.65;;;;;;;19.91;62.71;95062.75;4193340;28;20054;-76
2023/09/17 01:52:47;;;;;;;17.53;14.60;;;;;;;19.84;63.15;95064.63;4185095;28;20040;-76
2023/09/17 01:54:49;;;;;;;16.67;14.25;;;;;;;19.81;63.40;95065.84;4192247;28;20123;-74
2023/09/17 01:56:51;;;;;;;16.27;14.68;;;;;;;19.84;63.40;95061.97;4173616;28;20061;-75
2023/09/17 01:58:53;;;;;;;16.67;14.88;;;;;;;19.88;63.36;95075.66;4192195;28;20518;-75
2023/09/17 02:00:56;;;;;;;15.90;14.15;;;;;;;19.85;63.51;95068.88;4194171;28;20538;-74
2023/09/17 02:02:58;;;;;;;17.05;15.43;;;;;;;19.85;63.67;95068.88;4176992;28;20060;-75
2023/09/17 02:05:00;;;;;;;17.60;14.50;;;;;;;19.85;63.83;95066.22;4191427;28;20057;-76
2023/09/17 02:07:02;;;;;;;16.23;14.23;;;;;;;19.89;63.98;95064.00;4193611;28;20486;-74
2023/09/17 02:09:08;;;;;;;17.75;15.93;;;;;;;19.77;64.42;95077.09;4159879;28;20136;-73
2023/09/17 02:11:10;;;;;;;17.13;15.43;;;;;;;19.70;64.54;95063.81;4181574;28;20073;-76
2023/09/17 02:13:12;;;;;;;17.95;15.90;;;;;;;19.70;64.68;95063.00;4190152;28;20097;-75
2023/09/17 02:15:14;;;;;;;21.35;16.83;;;;;;;19.70;64.66;95063.81;4192566;28;20057;-75
2023/09/17 02:17:16;;;;;;;20.73;17.80;;;;;;;19.69;64.77;95066.66;4192306;28;20048;-75
2023/09/17 02:19:18;;;;;;;21.13;17.85;;;;;;;19.51;64.94;95067.25;4163453;28;20061;-75
2023/09/17 02:21:20;;;;;;;20.45;18.25;;;;;;;19.45;65.52;95068.91;4190064;28;20048;-76
2023/09/17 02:23:22;;;;;;;21.35;18.15;;;;;;;19.49;65.89;95072.81;4181355;28;20059;-73
2023/09/17 02:25:24;;;;;;;21.73;19.63;;;;;;;19.51;65.82;95073.41;4194197;28;20056;-75
2023/09/17 02:27:26;;;;;;;22.20;20.00;;;;;;;19.50;66.13;95069.13;4183340;28;20049;-76
2023/09/17 02:29:27;;;;;;;29.38;19.55;;;;;;;19.40;66.00;95074.84;4190917;28;20048;-76
2023/09/17 02:31:29;;;;;;;21.48;19.23;;;;;;;19.38;66.29;95074.25;4190155;28;20586;-74
2023/09/17 02:33:31;;;;;;;22.10;18.60;;;;;;;19.39;66.07;95072.41;4177959;28;20041;-75
2023/09/17 02:35:34;;;;;;;23.13;20.30;;;;;;;19.43;65.97;95069.13;4160008;28;20172;-75
2023/09/17 02:37:37;;;;;;;21.35;19.15;;;;;;;19.46;65.91;95065.22;4180519;28;20299;-76
2023/09/17 02:39:38;;;;;;;23.20;20.25;;;;;;;19.50;65.58;95060.34;4193333;28;20516;-75
2023/09/17 02:41:40;;;;;;;22.48;20.08;;;;;;;19.52;65.80;95068.91;4185043;28;20056;-75
2023/09/17 02:43:42;;;;;;;26.10;20.23;;;;;;;19.42;65.70;95062.19;4176962;28;20129;-75
2023/09/17 02:45:44;;;;;;;22.80;20.25;;;;;;;19.39;65.75;95067.09;4189924;28;20052;-75
2023/09/17 02:47:46;;;;;;;21.60;19.23;;;;;;;19.31;66.29;95067.28;4192740;28;20354;-74
2023/09/17 02:49:49;;;;;;;23.10;19.75;;;;;;;19.27;66.48;95055.44;4176803;28;20131;-75
2023/09/17 02:51:50;;;;;;;27.73;19.83;;;;;;;19.30;66.17;95055.84;4180730;28;20053;-73
2023/09/17 02:53:52;;;;;;;21.33;19.15;;;;;;;19.27;66.21;95061.53;4188233;28;20041;-76
2023/09/17 02:55:54;;;;;;;22.90;19.38;;;;;;;19.27;66.55;95058.09;4182903;28;20048;-75
2023/09/17 02:57:56;;;;;;;21.52;18.95;;;;;;;19.28;66.66;95057.06;4192573;28;20060;-75
2023/09/17 02:59:58;;;;;;;28.35;19.90;;;;;;;19.33;66.78;95047.44;4184577;28;20048;-76
2023/09/17 03:02:00;;;;;;;21.27;18.98;;;;;;;19.32;66.66;95050.34;4189393;28;20052;-75
2023/09/17 03:04:02;;;;;;;23.45;20.17;;;;;;;19.32;66.92;95043.19;4191877;28;20051;-75
2023/09/17 03:06:05;;;;;;;23.08;19.83;;;;;;;19.29;67.46;95037.44;4193143;28;20426;-76
2023/09/17 03:08:09;;;;;;;21.98;19.75;;;;;;;19.26;67.57;95045.84;4192354;28;20136;-75
2023/09/17 03:10:11;;;;;;;21.75;19.45;;;;;;;19.21;67.54;95051.75;4170296;28;20388;-75
2023/09/17 03:12:13;;;;;;;22.48;20.05;;;;;;;19.18;67.74;95050.31;4185307;28;20049;-75
2023/09/17 03:14:15;;;;;;;22.27;19.75;;;;;;;19.11;67.85;95057.47;4190648;28;20807;-74
2023/09/17 03:16:18;;;;;;;22.67;19.92;;;;;;;19.12;67.96;95053.81;4196354;28;20480;-72
2023/09/17 03:18:20;;;;;;;28.02;20.65;;;;;;;19.16;67.81;95051.53;4194344;28;20052;-76
2023/09/17 03:20:22;;;;;;;22.15;19.95;;;;;;;19.14;67.67;95056.22;4193587;28;20052;-75
2023/09/17 03:22:24;;;;;;;22.38;20.00;;;;;;;19.11;67.74;95054.81;4192514;28;20131;-74
2023/09/17 03:24:26;;;;;;;25.63;19.65;;;;;;;19.13;67.79;95054.63;4177500;28;20048;-76
2023/09/17 03:26:27;;;;;;;23.75;19.65;;;;;;;19.08;67.52;95054.38;4183851;28;20183;-75
2023/09/17 03:28:30;;;;;;;22.70;20.23;;;;;;;19.10;67.43;95058.50;4196374;28;20098;-75
2023/09/17 03:30:32;;;;;;;22.33;20.02;;;;;;;19.12;67.28;95064.44;4180211;28;20103;-73
2023/09/17 03:32:34;;;;;;;23.30;20.80;;;;;;;19.12;67.22;95058.28;4191977;28;20490;-77
2023/09/17 03:34:44;;;;;;;25.13;20.02;;;;;;;19.15;67.21;95058.69;4196584;28;20053;-75
2023/09/17 03:36:45;;;;;;;25.52;19.58;;;;;;;19.03;67.15;95055.81;4187439;28;20109;-75
2023/09/17 03:38:47;;;;;;;25.73;20.15;;;;;;;18.94;67.41;95056.22;4192729;28;20479;-76
2023/09/17 03:40:49;;;;;;;24.27;19.50;;;;;;;19.03;67.65;95062.97;4193642;28;20079;-74
2023/09/17 03:42:51;;;;;;;22.85;19.30;;;;;;;19.01;67.45;95055.22;4176418;28;20045;-74
2023/09/17 03:44:53;;;;;;;24.45;19.02;;;;;;;18.93;67.22;95060.72;4200370;28;20051;-74
2023/09/17 03:46:55;;;;;;;22.83;19.20;;;;;;;19.00;67.45;95056.22;4196305;28;20056;-75
2023/09/17 03:48:56;;;;;;;26.23;20.05;;;;;;;19.08;66.92;95065.00;4183526;28;20132;-75
2023/09/17 03:51:00;;;;;;;23.10;19.90;;;;;;;19.08;66.79;95057.03;4195290;28;20056;-75
2023/09/17 03:53:05;;;;;;;25.02;20.25;;;;;;;19.07;67.28;95064.19;4178052;28;20114;-75
2023/09/17 03:55:07;;;;;;;23.00;20.33;;;;;;;19.13;67.12;95062.59;4178027;28;20049;-75
2023/09/17 03:57:10;;;;;;;24.52;20.98;;;;;;;19.18;66.58;95071.56;4175620;28;20461;-75
2023/09/17 03:59:13;;;;;;;27.23;20.33;;;;;;;19.26;66.42;95069.75;4187285;28;20520;-76
2023/09/17 04:01:15;;;;;;;23.70;19.60;;;;;;;19.34;66.23;95080.16;4186034;28;20070;-75
2023/09/17 04:03:19;;;;;;;24.98;22.23;;;;;;;19.37;65.81;95082.41;4186793;28;20045;-76
2023/09/17 04:05:21;;;;;;;24.45;21.48;;;;;;;19.40;65.88;95081.97;4181499;28;20063;-74
2023/09/17 04:07:23;;;;;;;24.13;21.63;;;;;;;19.41;65.75;95081.78;4184581;28;20054;-75
2023/09/17 04:09:25;;;;;;;26.35;21.48;;;;;;;19.41;65.54;95075.66;4192116;28;20045;-74
2023/09/17 04:11:28;;;;;;;30.52;22.42;;;;;;;19.41;65.81;95078.31;4184679;28;20048;-75
2023/09/17 04:13:30;;;;;;;28.77;24.40;;;;;;;19.37;65.32;95071.78;4196056;28;20462;-78
2023/09/17 04:15:32;;;;;;;26.83;24.02;;;;;;;19.33;65.76;95084.63;4184502;28;20115;-75
2023/09/17 04:17:33;;;;;;;29.27;22.30;;;;;;;19.26;65.76;95078.53;4194005;28;20059;-76
2023/09/17 04:19:35;;;;;;;27.20;22.98;;;;;;;19.18;66.13;95084.84;4186469;28;20535;-75
2023/09/17 04:21:37;;;;;;;23.33;20.38;;;;;;;19.18;66.35;95084.03;4192891;28;20080;-76
2023/09/17 04:23:39;;;;;;;24.73;21.08;;;;;;;19.11;66.54;95077.91;4194860;28;20062;-75
2023/09/17 04:25:41;;;;;;;26.35;23.38;;;;;;;19.06;66.93;95077.66;4193419;28;20095;-76
2023/09/17 04:27:44;;;;;;;24.20;18.95;;;;;;;19.09;67.18;95080.75;4188237;28;20187;-76
2023/09/17 04:29:45;;;;;;;24.65;19.45;;;;;;;19.18;66.87;95078.72;4185510;28;20099;-78
2023/09/17 04:31:47;;;;;;;23.23;19.35;;;;;;;19.16;67.16;95084.22;4193619;28;20056;-75
2023/09/17 04:33:51;;;;;;;23.23;18.65;;;;;;;19.21;66.80;95079.13;4198704;28;20338;-76
2023/09/17 04:35:57;;;;;;;21.65;19.23;;;;;;;19.13;66.81;95083.81;4171546;28;20087;-77
2023/09/17 04:37:58;;;;;;;22.35;19.10;;;;;;;19.12;67.09;95083.00;4191549;28;20056;-76
2023/09/17 04:40:01;;;;;;;27.45;19.77;;;;;;;19.19;67.03;95085.69;4195846;28;20471;-76
2023/09/17 04:42:05;;;;;;;22.30;19.90;;;;;;;19.23;67.05;95087.72;4168434;28;20059;-75
2023/09/17 04:44:07;;;;;;;25.00;20.30;;;;;;;19.29;67.10;95085.25;4192159;28;20476;-74
2023/09/17 04:46:09;;;;;;;23.88;20.60;;;;;;;19.35;66.91;95087.91;4191524;28;20056;-76
2023/09/17 04:48:11;;;;;;;22.73;20.13;;;;;;;19.40;66.40;95084.63;4192691;28;20098;-75
2023/09/17 04:50:14;;;;;;;22.95;20.40;;;;;;;19.49;66.18;95094.06;4183486;28;20120;-75
2023/09/17 04:52:17;;;;;;;32.03;23.90;;;;;;;19.57;66.04;95096.50;4169698;28;20045;-75
2023/09/17 04:54:19;;;;;;;28.58;22.40;;;;;;;19.64;65.82;95088.53;4176249;28;20080;-77
2023/09/17 04:56:21;;;;;;;30.40;22.80;;;;;;;19.65;65.75;95090.97;4194017;28;20150;-75
2023/09/17 04:58:23;;;;;;;29.10;23.85;;;;;;;19.71;65.75;95099.19;4176635;28;20336;-77
2023/09/17 05:00:24;;;;;;;28.42;23.60;;;;;;;19.74;65.83;95098.78;4183401;28;20049;-76
2023/09/17 05:02:27;;;;;;;27.88;23.88;;;;;;;19.75;66.12;95097.75;4189062;28;20055;-75
2023/09/17 05:04:29;;;;;;;26.48;22.73;;;;;;;19.75;66.12;95095.91;4190015;28;20279;-76
2023/09/17 05:06:30;;;;;;;26.95;22.80;;;;;;;19.79;66.05;95093.66;4162907;28;20053;-76
2023/09/17 05:08:32;;;;;;;28.48;23.45;;;;;;;19.79;66.17;95094.47;4191677;28;20059;-77
2023/09/17 05:10:34;;;;;;;29.00;23.52;;;;;;;19.79;65.84;95101.66;4182556;28;20360;-76
2023/09/17 05:12:36;;;;;;;27.20;23.00;;;;;;;19.79;66.26;95094.47;4174346;28;20057;-76
2023/09/17 05:14:38;;;;;;;27.60;23.20;;;;;;;19.80;66.02;95097.94;4180685;28;20204;-77
2023/09/17 05:16:43;;;;;;;26.05;23.38;;;;;;;19.86;66.06;95097.13;4181363;28;20055;-76
2023/09/17 05:18:45;;;;;;;26.73;22.13;;;;;;;19.86;66.17;95097.13;4183190;28;20476;-75
2023/09/17 05:20:48;;;;;;;25.40;22.48;;;;;;;19.88;65.96;95100.41;4186628;28;20048;-76
2023/09/17 05:22:50;;;;;;;25.67;21.45;;;;;;;19.94;66.16;95093.41;4179215;28;20053;-78
2023/09/17 05:24:52;;;;;;;31.25;22.27;;;;;;;19.97;66.09;95091.16;4160268;28;20052;-77
2023/09/17 05:26:54;;;;;;;26.75;22.80;;;;;;;19.99;66.07;95089.13;4182318;28;20463;-75
2023/09/17 05:28:55;;;;;;;28.80;22.80;;;;;;;20.05;66.16;95095.47;4181315;28;20156;-76
2023/09/17 05:30:57;;;;;;;28.25;21.83;;;;;;;20.01;66.55;95094.25;4189456;28;20133;-75
2023/09/17 05:32:59;;;;;;;28.65;22.70;;;;;;;19.95;66.84;95095.06;4184144;28;20475;-77
2023/09/17 05:35:03;;;;;;;25.38;21.95;;;;;;;19.83;67.15;95086.88;4190589;28;20100;-77
2023/09/17 05:37:05;;;;;;;27.88;22.38;;;;;;;19.88;67.37;95086.28;4186434;28;20475;-76
2023/09/17 05:39:08;;;;;;;27.65;22.00;;;;;;;19.95;67.47;95090.56;4176420;28;20044;-76
2023/09/17 05:41:12;;;;;;;26.95;22.55;;;;;;;19.95;67.22;95089.75;4192798;28;20135;-80
2023/09/17 05:43:13;;;;;;;29.35;23.35;;;;;;;19.88;67.54;95089.75;4189664;28;20060;-76
2023/09/17 05:45:15;;;;;;;27.25;23.08;;;;;;;19.88;67.63;95099.59;4194837;28;20045;-76
2023/09/17 05:47:17;;;;;;;30.45;24.15;;;;;;;19.92;67.66;95101.63;4189368;28;20144;-76
2023/09/17 05:49:20;;;;;;;28.77;24.35;;;;;;;19.93;67.79;95105.91;4191345;28;20048;-75
2023/09/17 05:51:22;;;;;;;27.58;23.88;;;;;;;20.03;67.69;95098.31;4165097;28;20231;-75
2023/09/17 05:53:24;;;;;;;31.90;25.48;;;;;;;20.19;66.88;95112.19;4172993;28;20045;-76
2023/09/17 05:55:26;;;;;;;30.50;25.27;;;;;;;20.28;66.66;95105.59;4168427;28;20055;-75
2023/09/17 05:57:28;;;;;;;30.35;23.73;;;;;;;20.06;67.35;95102.41;4181954;28;20064;-77
2023/09/17 05:59:30;;;;;;;29.58;22.77;;;;;;;19.93;67.79;95108.56;4180843;28;20079;-75
2023/09/17 06:01:33;;;;;;;31.15;23.67;;;;;;;20.05;67.63;95106.09;4186493;28;20120;-77
2023/09/17 06:03:35;;;;;;;28.55;23.40;;;;;;;20.18;67.19;95108.72;4184497;28;20059;-78
2023/09/17 06:05:37;;;;;;;30.17;23.90;;;;;;;20.19;67.33;95106.88;4192522;28;20052;-76
2023/09/17 06:07:39;;;;;;;27.95;23.88;;;;;;;20.24;67.47;95109.72;4180655;28;20048;-75
2023/09/17 06:09:40;;;;;;;32.70;23.45;;;;;;;20.31;67.23;95110.53;4193675;28;20127;-76
2023/09/17 06:11:42;;;;;;;31.15;24.50;;;;;;;20.33;67.12;95111.13;4187257;28;20159;-77
2023/09/17 06:13:44;;;;;;;28.52;24.15;;;;;;;20.34;67.07;95104.78;4189801;28;20048;-76
2023/09/17 06:15:46;;;;;;;33.70;27.35;;;;;;;20.43;67.27;95108.84;4175793;28;20045;-76
2023/09/17 06:17:48;;;;;;;29.00;23.33;;;;;;;20.40;66.99;95111.13;4189635;28;20056;-76
2023/09/17 06:19:50;;;;;;;29.98;23.75;;;;;;;20.37;66.99;95107.03;4187989;28;20052;-76
2023/09/17 06:21:54;;;;;;;30.27;24.33;;;;;;;20.41;67.40;95110.06;4188594;28;20518;-75
2023/09/17 06:23:56;;;;;;;30.17;25.05;;;;;;;20.52;67.31;95111.25;4192187;28;20043;-77
2023/09/17 06:25:59;;;;;;;33.35;25.35;;;;;;;20.59;67.28;95122.75;4195908;28;20062;-75
2023/09/17 06:28:01;;;;;;;;;;;;;;;20.70;67.00;95119.41;4193518;28;20102;-76
2023/09/17 06:30:03;;;;;;;31.02;24.05;;;;;;;20.66;66.96;95123.53;4187139;28;19981;-77
2023/09/17 06:32:05;;;;;;;31.00;25.58;;;;;;;20.69;66.74;95128.41;4174041;28;20072;-77
2023/09/17 06:34:07;;;;;;;33.03;25.05;;;;;;;20.68;66.71;95123.31;4193007;28;20098;-76
2023/09/17 06:36:09;;;;;;;34.47;25.60;;;;;;;20.71;66.66;95128.22;4183769;28;20055;-77
2023/09/17 06:38:11;;;;;;;32.10;25.50;;;;;;;20.65;66.67;95132.56;4170219;28;20056;-76
2023/09/17 06:40:14;;;;;;;32.95;25.83;;;;;;;20.69;66.83;95128.41;4189771;28;20472;-77
2023/09/17 06:42:16;;;;;;;32.70;26.85;;;;;;;20.75;66.86;95134.75;4193615;28;20219;-75
2023/09/17 06:44:18;;;;;;;32.65;25.77;;;;;;;20.85;66.64;95133.28;4190829;28;20049;-76
2023/09/17 06:46:23;;;;;;;29.42;24.85;;;;;;;20.91;66.75;95128.13;4194512;28;20963;-76
2023/09/17 06:48:27;;;;;;;36.45;25.38;;;;;;;20.97;66.64;95124.59;4171677;28;20160;-76
2023/09/17 06:50:29;;;;;;;33.25;25.65;;;;;;;21.05;66.75;95121.69;4168877;28;20372;-75
2023/09/17 06:52:30;;;;;;;32.50;24.55;;;;;;;21.07;66.29;95122.28;4193691;28;20055;-74
2023/09/17 06:54:32;;;;;;;31.63;24.13;;;;;;;21.01;66.30;95128.47;4171276;28;20056;-76
2023/09/17 06:56:34;;;;;;;31.67;24.20;;;;;;;21.13;66.18;95125.97;4191078;28;20495;-77
2023/09/17 06:58:35;;;;;;;32.28;25.40;;;;;;;21.23;66.03;95129.78;4194331;28;20100;-76
2023/09/17 07:00:38;;;;;;;27.17;21.45;;;;;;;21.32;65.33;95129.53;4196743;28;20044;-76
2023/09/17 07:02:39;;;;;;;27.00;22.20;;;;;;;21.33;65.10;95128.50;4194553;28;20506;-73
2023/09/17 07:04:43;;;;;;;29.20;22.38;;;;;;;21.28;65.34;95124.63;4195602;28;20041;-74
2023/09/17 07:06:44;;;;;;;27.73;21.98;;;;;;;21.28;65.51;95126.47;4156491;28;20057;-75
2023/09/17 07:08:46;;;;;;;29.98;22.85;;;;;;;21.31;65.44;95127.91;4188359;28;20041;-79
2023/09/17 07:10:48;;;;;;;26.20;21.42;;;;;;;21.30;65.15;95131.59;4192287;28;20101;-77
2023/09/17 07:12:50;;;;;;;28.20;21.67;;;;;;;21.24;65.32;95127.94;4191551;28;20047;-75
2023/09/17 07:14:52;;;;;;;26.42;22.20;;;;;;;21.24;65.76;95134.06;4184324;28;20080;-78
2023/09/17 07:16:54;;;;;;;26.88;21.92;;;;;;;21.40;65.50;95129.25;4189600;28;20483;-78
2023/09/17 07:18:55;;;;;;;27.58;22.55;;;;;;;21.55;65.08;95132.44;4189191;28;20126;-78
2023/09/17 07:20:57;;;;;;;29.05;23.20;;;;;;;21.65;64.38;95131.97;4186597;28;20056;-77
2023/09/17 07:22:59;;;;;;;28.73;22.60;;;;;;;21.80;64.15;95137.00;4179718;28;20451;-76
2023/09/17 07:25:04;;;;;;;29.67;22.40;;;;;;;21.84;63.65;95144.34;4189522;28;20927;-75
2023/09/17 07:27:06;;;;;;;28.58;23.33;;;;;;;21.78;63.84;95147.88;4191083;28;20059;-77
2023/09/17 07:29:08;;;;;;;32.25;23.23;;;;;;;21.87;63.64;95156.41;4190108;28;20074;-76
2023/09/17 07:31:11;;;;;;;26.85;22.40;;;;;;;21.94;63.56;95151.84;4189496;28;20484;-76
2023/09/17 07:33:13;;;;;;;25.60;21.52;;;;;;;21.81;63.29;95152.78;4185909;28;20461;-78
2023/09/17 07:35:16;;;;;;;28.75;23.00;;;;;;;21.67;63.78;95152.06;4190789;28;20057;-77
2023/09/17 07:37:20;;;;;;;27.38;22.05;;;;;;;21.41;64.71;95157.56;4189057;28;20048;-74
2023/09/17 07:39:26;;;;;;;30.55;23.38;;;;;;;21.19;64.60;95157.91;4191625;28;20400;-76
2023/09/17 07:41:28;;;;;;;29.40;22.60;;;;;;;21.17;65.20;95156.47;4194075;28;20055;-78
2023/09/17 07:43:30;;;;;;;30.65;23.70;;;;;;;21.25;65.06;95156.19;4193925;28;20056;-77
2023/09/17 07:45:33;;;;;;;27.55;22.77;;;;;;;21.32;64.82;95157.00;4189110;28;20044;-77
2023/09/17 07:47:35;;;;;;;31.63;22.63;;;;;;;21.17;64.74;95161.81;4191916;28;20093;-78
2023/09/17 07:49:38;;;;;;;30.27;23.07;;;;;;;21.08;65.23;95163.91;4193971;28;20055;-78
2023/09/17 07:51:40;;;;;;;32.90;23.98;;;;;;;21.14;65.25;95165.69;4193538;28;20309;-79
2023/09/17 07:53:42;;;;;;;33.38;24.75;;;;;;;21.24;65.02;95163.38;4195457;28;20061;-76
2023/09/17 07:55:44;;;;;;;33.90;25.20;;;;;;;21.36;65.02;95157.38;4192486;28;20080;-77
2023/09/17 07:57:46;;;;;;;27.70;23.63;;;;;;;21.52;64.44;95159.56;4190069;28;20127;-76
2023/09/17 07:59:48;;;;;;;26.73;22.38;;;;;;;21.57;64.02;95157.03;4191544;28;20439;-79
2023/09/17 08:01:51;;;;;;;30.02;23.25;;;;;;;21.73;63.83;95162.91;4182968;28;20481;-76
2023/09/17 08:03:53;;;;;;;28.13;24.67;;;;;;;21.88;63.80;95160.72;4179907;28;20048;-77
2023/09/17 08:05:56;;;;;;;28.52;22.95;;;;;;;21.94;63.21;95165.19;4184722;28;20415;-79
2023/09/17 08:07:58;;;;;;;28.50;21.98;;;;;;;22.11;62.65;95167.28;4188461;28;20516;-77
2023/09/17 08:10:01;;;;;;;26.10;23.15;;;;;;;22.16;62.35;95159.44;4190984;28;20053;-76
2023/09/17 08:12:03;;;;;;;26.65;22.15;;;;;;;22.07;62.43;95164.25;4196329;28;20052;-77
2023/09/17 08:14:05;;;;;;;23.85;21.23;;;;;;;21.95;62.43;95155.34;4196132;28;20044;-77
2023/09/17 08:16:07;;;;;;;26.48;22.33;;;;;;;21.99;62.46;95160.00;4197238;28;20460;-77
2023/09/17 08:18:09;;;;;;;26.00;21.88;;;;;;;21.86;62.73;95163.59;4194393;28;20467;-78
2023/09/17 08:20:11;;;;;;;27.25;22.15;;;;;;;21.77;62.70;95158.75;4183416;28;20040;-78
2023/09/17 08:22:13;;;;;;;30.35;23.65;;;;;;;21.83;63.03;95166.72;4193353;28;20068;-76
2023/09/17 08:24:17;;;;;;;30.77;24.17;;;;;;;21.87;62.78;95164.41;4195292;28;20049;-76
2023/09/17 08:26:21;;;;;;;26.30;22.65;;;;;;;21.96;62.76;95165.78;4195989;28;20071;-78
2023/09/17 08:28:23;;;;;;;25.25;22.38;;;;;;;22.11;62.30;95161.94;4184718;28;20052;-77
2023/09/17 08:30:25;;;;;;;29.58;23.60;;;;;;;22.25;61.73;95158.16;4194909;28;20067;-79
2023/09/17 08:32:27;;;;;;;28.50;23.67;;;;;;;22.38;61.96;95159.88;4175257;28;20060;-76
2023/09/17 08:34:29;;;;;;;25.35;21.63;;;;;;;22.31;60.94;95162.63;4195373;28;20400;-76
2023/09/17 08:36:32;;;;;;;29.60;24.70;;;;;;;22.35;61.08;95160.31;4192689;28;20053;-76
2023/09/17 08:38:34;;;;;;;24.17;21.58;;;;;;;22.37;60.48;95161.75;4191363;28;20049;-75
2023/09/17 08:40:37;;;;;;;31.73;23.10;;;;;;;22.43;61.10;95155.50;4195627;28;20052;-77
2023/09/17 08:42:41;;;;;;;;;;;;;;;22.41;60.80;95162.94;4178624;28;20064;-76
2023/09/17 08:44:44;;;;;;;27.05;22.63;;;;;;;22.44;60.83;95151.78;4191425;28;19928;-76
2023/09/17 08:46:47;;;;;;;26.17;21.42;;;;;;;22.44;60.22;95154.47;4177523;28;20045;-74
2023/09/17 08:48:50;;;;;;;28.45;23.10;;;;;;;22.46;60.78;95152.38;4173296;28;20060;-77
2023/09/17 08:50:53;;;;;;;27.00;22.75;;;;;;;22.54;60.54;95147.78;4178531;28;20055;-75
2023/09/17 08:52:59;;;;;;;31.60;23.23;;;;;;;22.58;59.89;95152.44;4186543;28;20325;-77
2023/09/17 08:55:01;;;;;;;26.88;22.98;;;;;;;22.61;59.97;95145.88;4163896;28;20041;-77
2023/09/17 08:57:04;;;;;;;28.23;22.90;;;;;;;22.61;59.77;95146.69;4171537;28;20060;-78
2023/09/17 08:59:10;;;;;;;30.13;20.90;;;;;;;22.32;59.71;95142.88;4162519;28;20049;-79
2023/09/17 09:01:15;;;;;;;25.00;22.30;;;;;;;22.26;60.62;95149.09;4165161;28;20056;-79
2023/09/17 09:03:20;;;;;;;23.45;20.92;;;;;;;22.46;60.68;95146.25;4188885;28;20103;-77
2023/09/17 09:05:25;;;;;;;27.20;22.85;;;;;;;22.65;60.06;95142.53;4186433;28;20491;-78
2023/09/17 09:07:28;;;;;;;27.40;23.00;;;;;;;22.76;58.81;95142.78;4181964;28;20044;-75
2023/09/17 09:09:31;;;;;;;24.38;21.77;;;;;;;22.74;59.28;95143.03;4172925;28;20060;-78
2023/09/17 09:11:34;;;;;;;29.50;21.52;;;;;;;22.73;59.14;95133.38;4183285;28;20071;-79
2023/09/17 09:13:40;;;;;;;27.88;22.40;;;;;;;22.79;59.22;95132.50;4194597;28;20063;-78
2023/09/17 09:15:42;;;;;;;24.65;20.80;;;;;;;22.82;58.66;95139.22;4194108;28;20138;-77
2023/09/17 09:17:44;;;;;;;27.00;21.65;;;;;;;22.72;59.25;95130.97;4173535;28;20096;-79
2023/09/17 09:19:46;;;;;;;24.80;21.02;;;;;;;22.89;58.55;95142.66;4183263;28;20496;-77
2023/09/17 09:21:47;;;;;;;24.35;21.55;;;;;;;22.86;58.52;95143.91;4184318;28;20056;-78
2023/09/17 09:23:49;;;;;;;25.08;21.05;;;;;;;23.01;58.41;95132.84;4195437;28;20145;-79
2023/09/17 09:25:51;;;;;;;22.83;19.23;;;;;;;22.92;58.16;95141.38;4192888;28;20127;-79